Time;durP1;ratioP1;P1;durP2;ratioP2;P2;SDS_P1;SDS_P2;PMS_P1;PMS_P2;Temp;Humidity;BMP_temperature;BMP_pressure;BME280_temperature;BME280_humidity;BME280_pressure;Samples;Min_cycle;Max_cycle;Signal;HPM_P1;HPM_P2
2022/03/25 00:01:55;;;;;;;2.10;2.00;;;18.50;58.30;;;;;;4996463;28;20042;-13
2022/03/25 00:04:21;;;;;;;1.98;1.88;;;18.50;58.40;;;;;;4995721;28;20538;-12
2022/03/25 00:06:47;;;;;;;1.90;1.80;;;18.50;58.40;;;;;;4995633;28;20467;-13
2022/03/25 00:09:12;;;;;;;2.20;2.10;;;18.50;58.50;;;;;;4995669;28;20045;-12
2022/03/25 00:11:38;;;;;;;2.13;2.03;;;18.50;58.40;;;;;;4997016;28;20046;-12
2022/03/25 00:14:03;;;;;;;2.20;2.10;;;18.50;58.50;;;;;;4997096;28;20046;-13
2022/03/25 00:16:29;;;;;;;2.05;1.95;;;18.50;58.40;;;;;;4994857;28;20728;-13
2022/03/25 00:18:54;;;;;;;7.07;2.30;;;18.50;58.40;;;;;;4980395;28;20034;-13
2022/03/25 00:21:21;;;;;;;2.30;2.10;;;18.50;58.40;;;;;;4992852;28;20042;-13
2022/03/25 00:23:46;;;;;;;2.10;2.00;;;18.40;58.40;;;;;;4995663;28;20045;-12
2022/03/25 00:26:12;;;;;;;2.17;2.08;;;18.40;58.50;;;;;;4996230;28;20034;-12
2022/03/25 00:28:38;;;;;;;2.30;2.20;;;18.40;58.50;;;;;;4996425;28;20050;-12
2022/03/25 00:31:07;;;;;;;2.10;2.00;;;18.40;58.50;;;;;;4995464;28;20104;-12
2022/03/25 00:33:34;;;;;;;2.55;2.35;;;18.40;58.50;;;;;;4995618;28;20074;-13
2022/03/25 00:36:01;;;;;;;2.00;1.90;;;18.40;58.50;;;;;;4995312;28;20046;-12
2022/03/25 00:38:27;;;;;;;1.92;1.83;;;18.40;58.50;;;;;;4987197;28;20451;-13
2022/03/25 00:40:53;;;;;;;2.03;1.80;;;18.40;58.50;;;;;;4977031;28;20042;-13
2022/03/25 00:43:20;;;;;;;1.92;1.83;;;18.40;58.60;;;;;;4976498;28;20514;-12
2022/03/25 00:45:46;;;;;;;2.17;2.08;;;18.40;58.60;;;;;;4976924;28;20043;-12
2022/03/25 00:48:13;;;;;;;2.30;2.20;;;18.40;58.60;;;;;;4990631;28;20145;-14
2022/03/25 00:50:39;;;;;;;2.40;2.20;;;18.30;58.80;;;;;;4995957;28;20081;-13
2022/03/25 00:53:05;;;;;;;1.98;1.88;;;18.30;58.50;;;;;;4996253;28;20042;-12
2022/03/25 00:55:30;;;;;;;2.85;1.80;;;18.30;58.50;;;;;;4976836;28;20128;-12
2022/03/25 00:57:58;;;;;;;2.17;2.08;;;18.40;58.60;;;;;;4987411;28;20057;-12
2022/03/25 01:00:23;;;;;;;2.33;2.22;;;18.40;58.60;;;;;;4990223;28;20054;-13
2022/03/25 01:02:49;;;;;;;2.40;2.22;;;18.40;58.60;;;;;;4985167;28;20047;-12
2022/03/25 01:05:15;;;;;;;2.10;2.00;;;18.40;58.50;;;;;;4979560;28;20118;-12
2022/03/25 01:07:40;;;;;;;2.10;2.00;;;18.40;58.50;;;;;;4981798;28;20042;-13
2022/03/25 01:10:06;;;;;;;1.90;1.80;;;18.40;58.50;;;;;;4995512;28;20053;-12
2022/03/25 01:12:32;;;;;;;1.98;1.88;;;18.40;58.50;;;;;;4995327;28;20046;-12
2022/03/25 01:14:58;;;;;;;2.00;1.90;;;18.40;58.60;;;;;;4995446;28;20042;-13
2022/03/25 01:17:23;;;;;;;2.03;1.92;;;18.40;58.50;;;;;;4995081;28;20065;-12
2022/03/25 01:19:49;;;;;;;2.10;2.00;;;18.30;58.50;;;;;;4995430;28;20516;-13
2022/03/25 01:22:15;;;;;;;2.10;2.00;;;18.40;58.50;;;;;;4994846;28;20046;-12
2022/03/25 01:24:40;;;;;;;2.13;2.03;;;18.40;58.60;;;;;;4995795;28;20045;-12
2022/03/25 01:27:06;;;;;;;2.00;1.90;;;18.30;58.50;;;;;;4995813;28;20038;-13
2022/03/25 01:29:32;;;;;;;2.45;2.05;;;18.30;58.50;;;;;;4994405;28;20050;-12
2022/03/25 01:31:59;;;;;;;2.13;2.03;;;18.30;58.50;;;;;;4991079;28;20106;-13
2022/03/25 01:34:24;;;;;;;2.85;2.08;;;18.30;58.60;;;;;;4994697;28;20046;-13
2022/03/25 01:36:50;;;;;;;2.17;2.08;;;18.30;58.60;;;;;;4995228;28;20096;-12
2022/03/25 01:39:16;;;;;;;2.28;2.17;;;18.30;58.70;;;;;;4976234;28;20122;-13
2022/03/25 01:41:41;;;;;;;1.92;1.83;;;18.30;58.60;;;;;;4976216;28;20049;-12
2022/03/25 01:44:09;;;;;;;2.17;2.00;;;18.30;58.50;;;;;;4988762;28;20049;-12
2022/03/25 01:46:36;;;;;;;2.10;2.00;;;18.30;58.50;;;;;;4993980;28;20050;-12
2022/03/25 01:49:02;;;;;;;2.20;2.10;;;18.30;58.60;;;;;;4994847;28;20133;-12
2022/03/25 01:51:31;;;;;;;2.17;2.08;;;18.30;58.60;;;;;;4994619;28;20169;-13
2022/03/25 01:54:12;;;;;;;2.33;2.13;;;18.30;58.70;;;;;;4995154;28;20042;-12
2022/03/25 01:56:37;;;;;;;2.00;1.90;;;18.30;58.70;;;;;;4974307;28;20035;-13
2022/03/25 01:59:04;;;;;;;1.88;1.77;;;18.30;58.70;;;;;;4976486;28;20054;-12
2022/03/25 02:01:29;;;;;;;2.15;2.05;;;18.20;58.70;;;;;;4987541;28;20046;-13
2022/03/25 02:03:55;;;;;;;2.38;2.28;;;18.30;58.80;;;;;;4995291;28;20046;-13
2022/03/25 02:06:21;;;;;;;2.30;2.20;;;18.20;58.70;;;;;;4993463;28;20522;-13
2022/03/25 02:08:46;;;;;;;2.38;2.20;;;18.20;58.80;;;;;;4995217;28;20035;-13
2022/03/25 02:11:12;;;;;;;2.13;1.85;;;18.20;58.70;;;;;;4995100;28;20097;-13
2022/03/25 02:13:38;;;;;;;2.30;2.10;;;18.30;58.80;;;;;;4993309;28;20443;-13
2022/03/25 02:16:03;;;;;;;2.70;2.50;;;18.20;58.80;;;;;;4995031;28;20049;-13
2022/03/25 02:18:29;;;;;;;2.15;2.05;;;18.20;58.70;;;;;;4993972;28;20075;-12
2022/03/25 02:20:55;;;;;;;2.20;2.10;;;18.20;58.80;;;;;;4995013;28;20049;-12
2022/03/25 02:23:22;;;;;;;2.08;1.98;;;18.20;58.80;;;;;;4994470;28;20046;-13
2022/03/25 02:25:50;;;;;;;2.22;2.13;;;18.20;58.80;;;;;;4995391;28;20043;-13
2022/03/25 02:28:16;;;;;;;2.20;2.10;;;18.20;58.90;;;;;;4993183;28;20057;-13
2022/03/25 02:30:43;;;;;;;1.98;1.88;;;18.20;58.90;;;;;;4996294;28;20042;-13
2022/03/25 02:33:08;;;;;;;2.00;1.90;;;18.20;59.00;;;;;;4998289;28;20080;-12
2022/03/25 02:35:53;;;;;;;1.90;1.80;;;18.20;58.90;;;;;;4997489;28;20046;-12
2022/03/25 02:38:19;;;;;;;;;;;18.20;58.90;;;;;;4997844;28;20077;-12
2022/03/25 02:40:45;;;;;;;2.05;1.95;;;18.20;58.80;;;;;;4999023;28;20004;-11
2022/03/25 02:43:11;;;;;;;2.15;2.05;;;18.20;58.80;;;;;;4998646;28;20070;-12
2022/03/25 02:45:37;;;;;;;2.10;2.00;;;18.20;59.50;;;;;;4997979;28;20074;-11
2022/03/25 02:48:03;;;;;;;2.47;2.35;;;18.20;58.90;;;;;;4998449;28;20073;-13
2022/03/25 02:50:29;;;;;;;2.00;1.90;;;18.20;58.80;;;;;;4997477;28;20439;-11
2022/03/25 02:52:56;;;;;;;1.92;1.83;;;18.20;58.80;;;;;;4997935;28;20118;-11
2022/03/25 02:55:21;;;;;;;2.00;1.90;;;18.20;58.80;;;;;;4997469;28;20038;-12
2022/03/25 02:57:47;;;;;;;1.98;1.88;;;18.20;58.80;;;;;;4997785;28;20050;-11
2022/03/25 03:00:13;;;;;;;2.20;2.10;;;18.10;58.80;;;;;;4998442;28;20053;-12
2022/03/25 03:02:38;;;;;;;2.10;2.00;;;18.20;58.80;;;;;;4996358;28;20058;-12
2022/03/25 03:05:07;;;;;;;2.00;1.90;;;18.10;58.90;;;;;;4997312;28;20050;-12
2022/03/25 03:07:37;;;;;;;2.00;1.90;;;18.10;58.80;;;;;;4997636;28;20046;-12
2022/03/25 03:10:07;;;;;;;1.95;1.85;;;18.10;58.90;;;;;;4995942;28;20092;-11
2022/03/25 03:12:32;;;;;;;1.80;1.70;;;18.10;58.80;;;;;;4977957;28;20403;-12
2022/03/25 03:14:59;;;;;;;2.10;2.00;;;18.10;58.90;;;;;;4978841;28;20050;-12
2022/03/25 03:17:25;;;;;;;2.30;2.20;;;18.10;58.80;;;;;;4977695;28;20046;-12
2022/03/25 03:19:50;;;;;;;2.17;2.08;;;18.20;58.80;;;;;;4993381;28;20050;-12
2022/03/25 03:22:17;;;;;;;2.28;2.17;;;18.10;58.80;;;;;;4997948;28;20054;-11
2022/03/25 03:24:43;;;;;;;2.20;2.08;;;18.10;58.80;;;;;;4997186;28;20093;-12
2022/03/25 03:27:10;;;;;;;2.20;2.10;;;18.10;58.80;;;;;;4997334;28;20046;-12
2022/03/25 03:29:36;;;;;;;2.10;2.00;;;18.10;58.80;;;;;;4996877;28;20038;-12
2022/03/25 03:32:02;;;;;;;2.25;2.15;;;18.10;58.90;;;;;;4996937;28;20042;-12
2022/03/25 03:34:28;;;;;;;1.90;1.80;;;18.10;58.80;;;;;;4996841;28;20038;-12
2022/03/25 03:36:53;;;;;;;1.95;1.85;;;18.10;58.80;;;;;;4997550;28;20049;-11
2022/03/25 03:39:19;;;;;;;2.13;2.03;;;18.10;58.80;;;;;;4997180;28;20100;-12
2022/03/25 03:41:45;;;;;;;2.00;1.90;;;18.10;58.80;;;;;;4980268;28;20409;-13
2022/03/25 03:44:10;;;;;;;2.20;2.03;;;18.10;58.80;;;;;;4978212;28;20050;-12
2022/03/25 03:46:36;;;;;;;2.60;2.40;;;18.10;58.80;;;;;;4977088;28;20050;-11
2022/03/25 03:49:01;;;;;;;2.00;1.90;;;18.10;58.80;;;;;;4988007;28;20050;-12
2022/03/25 03:51:27;;;;;;;2.03;1.92;;;18.00;58.70;;;;;;4996078;28;20133;-11
2022/03/25 03:53:53;;;;;;;2.15;2.05;;;18.10;58.80;;;;;;4997349;28;20042;-12
2022/03/25 03:56:19;;;;;;;2.30;2.10;;;18.00;58.80;;;;;;4996972;28;20049;-12
2022/03/25 03:58:44;;;;;;;2.22;2.13;;;18.00;58.80;;;;;;4996077;28;20046;-12
2022/03/25 04:01:10;;;;;;;2.45;2.30;;;18.00;58.80;;;;;;4997151;28;20050;-12
2022/03/25 04:03:35;;;;;;;2.38;2.28;;;18.00;58.80;;;;;;4986438;28;20047;-12
2022/03/25 04:06:01;;;;;;;2.00;1.90;;;18.10;58.80;;;;;;4997215;28;20042;-12
2022/03/25 04:08:27;;;;;;;2.15;2.05;;;18.10;58.80;;;;;;4996423;28;20058;-12
2022/03/25 04:10:53;;;;;;;2.33;2.22;;;18.10;58.80;;;;;;4997221;28;20046;-12
2022/03/25 04:13:18;;;;;;;2.33;2.22;;;18.00;58.70;;;;;;4987877;28;20108;-12
2022/03/25 04:15:44;;;;;;;2.38;2.28;;;18.00;58.70;;;;;;4976828;28;20102;-12
2022/03/25 04:18:10;;;;;;;2.30;2.20;;;18.00;58.70;;;;;;4978274;28;20043;-12
2022/03/25 04:20:35;;;;;;;2.35;2.15;;;18.00;58.70;;;;;;4994873;28;20046;-12
2022/03/25 04:23:01;;;;;;;2.33;2.22;;;18.00;58.80;;;;;;4981443;28;20046;-12
2022/03/25 04:25:26;;;;;;;2.08;1.98;;;18.00;58.70;;;;;;4996305;28;20054;-11
2022/03/25 04:27:56;;;;;;;2.00;1.90;;;18.00;58.70;;;;;;4995364;28;20050;-12
2022/03/25 04:30:26;;;;;;;2.13;2.03;;;18.00;58.70;;;;;;4977230;28;20089;-13
2022/03/25 04:32:52;;;;;;;2.28;2.17;;;18.00;58.70;;;;;;4982406;28;20533;-12
2022/03/25 04:35:18;;;;;;;2.20;2.10;;;18.00;58.70;;;;;;4996087;28;20529;-12
2022/03/25 04:37:44;;;;;;;2.30;2.20;;;18.00;58.60;;;;;;4987065;28;20050;-12
2022/03/25 04:40:10;;;;;;;2.38;2.28;;;18.00;58.70;;;;;;4977322;28;20105;-12
2022/03/25 04:42:36;;;;;;;2.58;2.30;;;18.00;58.60;;;;;;4976940;28;20568;-12
2022/03/25 04:45:02;;;;;;;1.98;1.88;;;18.00;58.60;;;;;;4978434;28;20506;-12
2022/03/25 04:47:27;;;;;;;2.22;2.13;;;18.00;58.60;;;;;;4995350;28;20056;-12
2022/03/25 04:49:53;;;;;;;2.30;2.20;;;18.00;58.70;;;;;;4984986;28;20805;-12
2022/03/25 04:52:19;;;;;;;2.25;2.00;;;18.00;58.60;;;;;;4976473;28;20466;-12
2022/03/25 04:54:44;;;;;;;2.70;2.50;;;17.90;58.60;;;;;;4995759;28;20515;-12
2022/03/25 04:57:10;;;;;;;2.47;2.38;;;18.00;58.70;;;;;;4995095;28;20059;-12
2022/03/25 04:59:35;;;;;;;2.55;2.45;;;18.00;58.60;;;;;;4995452;28;20038;-11
2022/03/25 05:02:01;;;;;;;1.98;1.88;;;18.00;58.70;;;;;;4995722;28;20043;-12
2022/03/25 05:04:27;;;;;;;2.38;2.25;;;18.00;58.70;;;;;;4995248;28;20085;-12
2022/03/25 05:06:53;;;;;;;2.40;2.30;;;18.00;58.60;;;;;;4980124;28;20047;-12
2022/03/25 05:09:18;;;;;;;2.13;2.03;;;18.00;58.60;;;;;;4984852;28;20034;-12
2022/03/25 05:11:44;;;;;;;2.20;2.10;;;18.00;58.70;;;;;;4991614;28;20037;-12
2022/03/25 05:14:10;;;;;;;2.20;2.10;;;18.00;58.60;;;;;;4977069;28;20121;-13
2022/03/25 05:16:36;;;;;;;2.40;2.30;;;18.00;58.70;;;;;;4975487;28;20117;-13
2022/03/25 05:19:02;;;;;;;2.38;2.22;;;18.00;58.70;;;;;;4988728;28;20065;-12
2022/03/25 05:21:27;;;;;;;2.30;2.20;;;17.90;58.60;;;;;;4994541;28;20089;-14
2022/03/25 05:23:53;;;;;;;1.88;1.77;;;18.00;58.60;;;;;;4995879;28;20042;-13
2022/03/25 05:26:20;;;;;;;2.15;2.05;;;18.00;58.60;;;;;;4995896;28;20038;-13
2022/03/25 05:28:46;;;;;;;2.42;2.33;;;18.00;58.60;;;;;;4994647;28;20454;-13
2022/03/25 05:31:11;;;;;;;2.67;2.58;;;18.00;58.60;;;;;;4995379;28;20046;-12
2022/03/25 05:33:37;;;;;;;2.40;2.30;;;17.90;58.50;;;;;;4990378;28;20411;-12
2022/03/25 05:36:03;;;;;;;2.15;2.05;;;18.00;58.50;;;;;;4994721;28;20500;-13
2022/03/25 05:38:30;;;;;;;2.20;2.10;;;18.00;58.50;;;;;;4991675;28;20411;-14
2022/03/25 05:40:55;;;;;;;2.38;2.28;;;17.90;58.60;;;;;;4995514;28;20052;-12
2022/03/25 05:43:21;;;;;;;2.53;2.33;;;17.90;59.20;;;;;;4990179;28;20046;-13
2022/03/25 05:45:46;;;;;;;2.60;2.50;;;17.90;58.60;;;;;;4992835;28;20081;-13
2022/03/25 05:48:12;;;;;;;2.25;2.15;;;17.90;58.60;;;;;;4994190;28;20105;-13
2022/03/25 05:50:38;;;;;;;2.08;1.98;;;17.90;58.60;;;;;;4994346;28;20046;-12
2022/03/25 05:53:05;;;;;;;2.50;2.40;;;17.90;58.60;;;;;;4993856;28;20046;-12
2022/03/25 05:55:31;;;;;;;2.38;2.28;;;17.90;58.40;;;;;;4992882;28;20058;-13
2022/03/25 05:57:57;;;;;;;2.17;2.08;;;17.90;58.50;;;;;;4995190;28;20063;-13
2022/03/25 06:00:23;;;;;;;2.10;2.00;;;18.00;58.50;;;;;;4995166;28;20039;-13
2022/03/25 06:02:49;;;;;;;2.08;1.98;;;17.90;58.50;;;;;;4993033;28;20046;-13
2022/03/25 06:05:15;;;;;;;2.28;2.17;;;17.90;58.50;;;;;;4997328;28;20053;-12
2022/03/25 06:07:42;;;;;;;2.70;2.50;;;17.90;58.40;;;;;;4996897;28;20547;-13
2022/03/25 06:10:09;;;;;;;2.10;2.00;;;17.90;58.50;;;;;;4997590;28;20038;-13
2022/03/25 06:12:35;;;;;;;2.60;2.47;;;17.90;58.60;;;;;;4994387;28;20065;-13
2022/03/25 06:15:01;;;;;;;2.33;2.22;;;17.90;58.70;;;;;;4994701;28;20491;-12
2022/03/25 06:17:26;;;;;;;2.47;2.30;;;17.90;58.80;;;;;;4997282;28;20427;-13
2022/03/25 06:19:52;;;;;;;2.22;2.13;;;17.90;59.00;;;;;;4996852;28;20101;-13
2022/03/25 06:22:18;;;;;;;5.75;2.30;;;17.90;59.20;;;;;;4994786;28;20054;-13
2022/03/25 06:24:44;;;;;;;2.75;2.63;;;17.90;59.00;;;;;;4979174;28;20070;-13
2022/03/25 06:27:10;;;;;;;2.40;2.30;;;17.90;59.20;;;;;;4978173;28;20419;-13
2022/03/25 06:29:37;;;;;;;2.50;2.40;;;17.90;59.80;;;;;;4979341;28;20035;-13
2022/03/25 06:32:05;;;;;;;2.67;2.58;;;17.90;60.80;;;;;;4994264;28;20477;-13
2022/03/25 06:34:31;;;;;;;2.38;2.28;;;18.00;61.10;;;;;;4997923;28;20516;-13
2022/03/25 06:36:56;;;;;;;3.45;3.25;;;18.00;60.70;;;;;;4996233;28;20070;-13
2022/03/25 06:39:22;;;;;;;4.25;3.35;;;18.00;60.40;;;;;;4998236;28;20038;-12
2022/03/25 06:41:48;;;;;;;4.60;3.85;;;18.00;60.50;;;;;;4648276;28;9999895;-13
2022/03/25 06:44:13;;;;;;;4.68;4.28;;;18.00;60.30;;;;;;4991731;28;20050;-13
2022/03/25 06:46:39;;;;;;;4.10;3.80;;;18.00;60.10;;;;;;4997087;28;20153;-12
2022/03/25 06:49:05;;;;;;;4.10;3.80;;;17.90;60.10;;;;;;4995702;28;20050;-12
2022/03/25 06:51:31;;;;;;;4.80;3.72;;;17.90;60.20;;;;;;4989891;28;20516;-13
2022/03/25 06:53:57;;;;;;;3.55;3.35;;;17.90;60.70;;;;;;5009216;28;20042;-13
2022/03/25 06:56:23;;;;;;;3.10;2.90;;;17.90;62.20;;;;;;4997548;28;20030;-13
2022/03/25 06:58:49;;;;;;;3.17;2.97;;;17.90;61.50;;;;;;4995945;28;20092;-13
2022/03/25 07:01:16;;;;;;;3.08;2.88;;;18.00;63.30;;;;;;4996098;28;20074;-13
2022/03/25 07:03:42;;;;;;;3.50;3.20;;;17.90;63.00;;;;;;4996525;28;20491;-13
2022/03/25 07:06:08;;;;;;;4.95;3.88;;;17.90;62.90;;;;;;4995929;28;20399;-13
2022/03/25 07:08:34;;;;;;;4.20;4.00;;;17.90;62.00;;;;;;4994286;28;20088;-13
2022/03/25 07:11:00;;;;;;;4.93;3.13;;;17.90;62.00;;;;;;4996906;28;20050;-13
2022/03/25 07:13:26;;;;;;;4.07;3.72;;;17.90;61.60;;;;;;4995774;28;20050;-14
2022/03/25 07:15:52;;;;;;;4.03;3.75;;;17.90;61.10;;;;;;4981019;28;20435;-13
2022/03/25 07:18:18;;;;;;;4.43;3.97;;;18.00;61.20;;;;;;4987367;28;20115;-13
2022/03/25 07:20:43;;;;;;;3.60;3.30;;;18.00;60.90;;;;;;4995453;28;20066;-13
2022/03/25 07:23:09;;;;;;;3.88;3.67;;;17.90;60.90;;;;;;4997746;28;20050;-13
2022/03/25 07:25:35;;;;;;;4.00;3.70;;;18.00;60.70;;;;;;4995297;28;20121;-13
2022/03/25 07:28:00;;;;;;;4.30;4.00;;;18.00;60.60;;;;;;4994338;28;20058;-12
2022/03/25 07:30:26;;;;;;;4.93;3.38;;;17.90;60.30;;;;;;4994863;28;20051;-13
2022/03/25 07:32:51;;;;;;;3.72;3.53;;;18.00;60.30;;;;;;4997110;28;20504;-13
2022/03/25 07:35:18;;;;;;;3.83;3.50;;;18.00;60.10;;;;;;4979388;28;20038;-13
2022/03/25 07:37:44;;;;;;;3.92;3.63;;;17.90;60.40;;;;;;4977231;28;20047;-13
2022/03/25 07:40:10;;;;;;;5.15;3.65;;;17.90;61.30;;;;;;4990283;28;20057;-14
2022/03/25 07:42:40;;;;;;;6.18;3.75;;;18.00;60.60;;;;;;4995836;28;20046;-13
2022/03/25 07:45:08;;;;;;;3.47;3.28;;;18.00;61.20;;;;;;4996177;28;20478;-13
2022/03/25 07:47:38;;;;;;;3.85;3.55;;;18.00;60.90;;;;;;4996891;28;20050;-14
2022/03/25 07:50:04;;;;;;;3.83;3.60;;;18.00;61.10;;;;;;4997339;28;20470;-13
2022/03/25 07:52:29;;;;;;;3.70;3.40;;;18.00;61.30;;;;;;4997615;28;20048;-14
2022/03/25 07:54:56;;;;;;;3.72;3.25;;;18.00;62.20;;;;;;4979623;28;20102;-13
2022/03/25 07:57:21;;;;;;;6.00;3.72;;;18.00;63.30;;;;;;4978083;28;20135;-14
2022/03/25 07:59:47;;;;;;;7.22;4.40;;;18.10;63.50;;;;;;4989319;28;20067;-13
2022/03/25 08:02:12;;;;;;;4.70;4.28;;;18.10;65.40;;;;;;4993767;28;20107;-13
2022/03/25 08:04:38;;;;;;;4.03;3.67;;;18.10;65.30;;;;;;4996213;28;20312;-14
2022/03/25 08:07:04;;;;;;;4.43;4.03;;;18.20;63.30;;;;;;4995694;28;20042;-13
2022/03/25 08:09:30;;;;;;;9.85;5.30;;;18.20;63.60;;;;;;4995112;28;20042;-14
2022/03/25 08:11:55;;;;;;;10.15;5.78;;;18.10;65.20;;;;;;4995848;28;20034;-13
2022/03/25 08:14:22;;;;;;;33.58;10.75;;;18.20;63.70;;;;;;4997033;28;20077;-13
2022/03/25 08:16:47;;;;;;;40.70;13.60;;;18.20;65.20;;;;;;4994249;28;20129;-13
2022/03/25 08:19:13;;;;;;;36.70;13.82;;;18.20;65.40;;;;;;4996413;28;20539;-14
2022/03/25 08:21:39;;;;;;;34.60;12.60;;;18.20;64.90;;;;;;4988458;28;20133;-14
2022/03/25 08:29:35;;;;;;;;;;;18.20;63.50;;;;;;4995552;28;20062;-14
2022/03/25 08:32:02;;;;;;;22.35;9.52;;;18.20;63.60;;;;;;4995740;28;20344;-13
2022/03/25 08:34:28;;;;;;;20.10;8.60;;;18.20;63.20;;;;;;4996621;28;20581;-14
2022/03/25 08:36:54;;;;;;;18.33;7.82;;;18.20;63.00;;;;;;4995711;28;20450;-14
2022/03/25 08:39:20;;;;;;;22.00;9.45;;;18.20;62.90;;;;;;4992240;28;20046;-14
2022/03/25 08:41:45;;;;;;;23.80;9.48;;;18.20;62.70;;;;;;4976369;28;20046;-13
2022/03/25 08:44:11;;;;;;;19.27;8.35;;;18.20;62.50;;;;;;4977366;28;20047;-14
2022/03/25 08:46:36;;;;;;;14.98;8.35;;;18.20;62.40;;;;;;4976846;28;20035;-13
2022/03/25 08:49:02;;;;;;;22.70;8.07;;;18.30;62.50;;;;;;4979826;28;20053;-14
2022/03/25 08:51:28;;;;;;;19.38;9.05;;;18.30;62.20;;;;;;4994932;28;20054;-14
2022/03/25 08:53:54;;;;;;;18.30;8.60;;;18.40;61.70;;;;;;4995168;28;20042;-14
2022/03/25 08:56:24;;;;;;;19.80;7.95;;;18.30;61.60;;;;;;4995516;28;20049;-14
2022/03/25 08:58:50;;;;;;;18.17;7.97;;;18.30;61.60;;;;;;4994990;28;20399;-13
2022/03/25 09:01:16;;;;;;;15.18;7.60;;;18.40;61.40;;;;;;4995188;28;20065;-13
2022/03/25 09:03:41;;;;;;;19.63;8.35;;;18.40;61.20;;;;;;4995655;28;20553;-13
2022/03/25 09:06:07;;;;;;;14.20;7.00;;;18.40;61.30;;;;;;4995364;28;20038;-13
2022/03/25 09:08:33;;;;;;;18.55;7.07;;;18.40;61.40;;;;;;4995914;28;20038;-13
2022/03/25 09:10:58;;;;;;;14.20;6.95;;;18.40;61.20;;;;;;4994954;28;20467;-13
2022/03/25 09:13:24;;;;;;;15.52;7.10;;;18.40;61.30;;;;;;4987282;28;20066;-13
2022/03/25 09:15:50;;;;;;;14.80;6.88;;;18.40;61.30;;;;;;4995212;28;20046;-14
2022/03/25 09:18:16;;;;;;;16.25;7.13;;;18.40;61.00;;;;;;4996131;28;20054;-13
2022/03/25 09:20:42;;;;;;;15.60;6.90;;;18.50;61.10;;;;;;4983556;28;20055;-13
2022/03/25 09:23:08;;;;;;;11.60;6.55;;;18.50;60.70;;;;;;4986431;28;20057;-13
2022/03/25 09:25:34;;;;;;;11.93;7.00;;;18.50;61.40;;;;;;4995814;28;20038;-13
2022/03/25 09:27:59;;;;;;;15.80;7.68;;;18.50;60.50;;;;;;4995135;28;20056;-12
2022/03/25 09:30:25;;;;;;;13.68;6.95;;;18.50;60.30;;;;;;4994834;28;20046;-12
2022/03/25 09:32:51;;;;;;;12.57;6.22;;;18.50;60.30;;;;;;4995182;28;20071;-12
2022/03/25 09:35:16;;;;;;;10.63;6.53;;;18.60;60.00;;;;;;4995226;28;20073;-12
2022/03/25 09:37:46;;;;;;;10.23;6.32;;;18.60;59.50;;;;;;4994845;28;20106;-13
2022/03/25 09:40:13;;;;;;;13.35;6.82;;;18.60;59.80;;;;;;4999097;28;20041;-12
2022/03/25 09:42:39;;;;;;;11.85;7.05;;;18.70;59.40;;;;;;4999027;28;20473;-12
2022/03/25 09:45:05;;;;;;;12.32;6.03;;;18.70;59.40;;;;;;4998327;28;20134;-12
2022/03/25 09:47:31;;;;;;;16.08;7.15;;;18.70;59.30;;;;;;4999352;28;20129;-12
2022/03/25 09:49:58;;;;;;;10.98;6.00;;;18.70;59.20;;;;;;4998179;28;20447;-13
2022/03/25 09:52:25;;;;;;;11.55;6.70;;;18.70;59.10;;;;;;4997206;28;21214;-15
2022/03/25 09:54:51;;;;;;;9.25;5.70;;;18.70;59.00;;;;;;4994043;28;20121;-13
2022/03/25 09:57:17;;;;;;;8.07;5.72;;;18.80;59.20;;;;;;4989144;28;20137;-13
2022/03/25 09:59:43;;;;;;;9.05;5.95;;;18.80;58.90;;;;;;4985595;28;20534;-12
2022/03/25 10:02:08;;;;;;;7.07;5.68;;;18.80;58.80;;;;;;4990483;28;20050;-12
2022/03/25 10:04:46;;;;;;;8.35;5.85;;;18.80;58.80;;;;;;4991413;28;20042;-13
2022/03/25 10:07:27;;;;;;;8.75;5.50;;;18.90;58.80;;;;;;4988935;28;20047;-12
2022/03/25 10:10:17;;;;;;;7.25;5.65;;;18.90;59.10;;;;;;4994423;28;20087;-12
2022/03/25 10:13:00;;;;;;;7.50;4.45;;;18.90;58.90;;;;;;4993738;28;20050;-13
2022/03/25 10:15:27;;;;;;;8.93;5.50;;;18.90;58.70;;;;;;4998309;28;20068;-13
2022/03/25 10:18:06;;;;;;;9.07;5.70;;;18.90;58.80;;;;;;4998508;28;20125;-12
2022/03/25 10:20:39;;;;;;;11.07;5.85;;;19.00;58.60;;;;;;4997462;28;20047;-13
2022/03/25 10:23:15;;;;;;;9.10;5.53;;;19.00;58.50;;;;;;4986255;28;20050;-13
2022/03/25 10:25:47;;;;;;;14.02;6.85;;;19.00;58.50;;;;;;4989650;28;20030;-12
2022/03/25 10:28:28;;;;;;;11.60;6.35;;;19.00;58.50;;;;;;4981587;28;20057;-12
2022/03/25 10:30:58;;;;;;;12.18;7.32;;;19.00;58.60;;;;;;4978379;28;20046;-12
2022/03/25 10:33:30;;;;;;;12.30;6.78;;;19.00;58.50;;;;;;4979398;28;20055;-13
2022/03/25 10:35:57;;;;;;;14.02;7.85;;;19.10;58.70;;;;;;4978913;28;20043;-13
2022/03/25 10:38:22;;;;;;;15.30;8.18;;;19.00;58.60;;;;;;4986929;28;20093;-13
2022/03/25 10:40:52;;;;;;;11.85;8.35;;;19.10;58.60;;;;;;4983341;28;20125;-13
2022/03/25 10:43:18;;;;;;;15.65;8.48;;;19.10;58.40;;;;;;4984076;28;20053;-12
2022/03/25 10:45:45;;;;;;;15.15;8.88;;;19.10;58.40;;;;;;4984491;28;20058;-12
2022/03/25 10:48:21;;;;;;;15.77;9.23;;;19.20;58.40;;;;;;4983845;28;20137;-12
2022/03/25 10:51:00;;;;;;;15.25;9.30;;;19.20;58.40;;;;;;4982458;28;20129;-12
2022/03/25 10:53:27;;;;;;;15.43;9.38;;;19.30;58.50;;;;;;4983675;28;20108;-13
2022/03/25 10:56:06;;;;;;;15.63;8.40;;;19.30;58.40;;;;;;4983462;28;20066;-13
2022/03/25 10:58:33;;;;;;;16.27;10.13;;;19.30;58.30;;;;;;4984130;28;20085;-13
2022/03/25 11:00:59;;;;;;;14.98;9.00;;;19.30;58.40;;;;;;4982152;28;20046;-12
2022/03/25 11:03:24;;;;;;;14.93;9.05;;;19.40;58.40;;;;;;4983524;28;20137;-12
2022/03/25 11:05:50;;;;;;;15.60;8.88;;;19.40;58.30;;;;;;4981884;28;20066;-13
2022/03/25 11:08:15;;;;;;;14.18;8.13;;;19.40;58.40;;;;;;4981912;28;20046;-12
2022/03/25 11:10:41;;;;;;;12.48;8.27;;;19.50;58.60;;;;;;4988398;28;20064;-15
2022/03/25 11:13:08;;;;;;;11.77;8.15;;;19.40;58.60;;;;;;4986282;28;20050;-13
2022/03/25 11:15:34;;;;;;;12.73;7.93;;;19.50;58.70;;;;;;4993854;28;20041;-14
2022/03/25 11:18:00;;;;;;;12.48;8.70;;;19.40;58.60;;;;;;4996219;28;20050;-13
2022/03/25 11:20:26;;;;;;;14.07;8.93;;;19.40;58.90;;;;;;4992893;28;20054;-13
2022/03/25 11:23:06;;;;;;;11.93;8.27;;;19.40;58.80;;;;;;4978706;28;20050;-13
2022/03/25 11:25:43;;;;;;;14.45;8.75;;;19.50;58.70;;;;;;4778012;28;10000914;-13
2022/03/25 11:28:12;;;;;;;14.40;8.95;;;19.50;58.70;;;;;;4990083;28;20901;-13
2022/03/25 11:30:37;;;;;;;13.43;8.52;;;19.40;58.80;;;;;;4988735;28;20046;-12
2022/03/25 11:33:04;;;;;;;17.05;8.50;;;19.40;58.60;;;;;;4993311;28;20121;-12
2022/03/25 11:35:41;;;;;;;12.05;8.00;;;19.50;58.50;;;;;;5003291;28;20070;-13
2022/03/25 11:38:18;;;;;;;13.07;8.32;;;19.50;57.80;;;;;;4997046;28;20142;-12
2022/03/25 11:40:52;;;;;;;13.50;8.23;;;19.60;58.20;;;;;;4999634;28;20156;-13
2022/03/25 11:43:19;;;;;;;14.60;9.25;;;19.60;57.60;;;;;;4995778;28;20085;-12
2022/03/25 11:45:46;;;;;;;13.95;9.13;;;19.60;57.50;;;;;;4998237;28;20038;-13
2022/03/25 11:48:11;;;;;;;15.02;9.45;;;19.60;56.90;;;;;;4991601;28;20400;-12
2022/03/25 11:50:38;;;;;;;13.43;9.27;;;19.70;56.80;;;;;;4993302;28;20077;-15
2022/03/25 11:53:27;;;;;;;16.00;10.05;;;19.70;56.50;;;;;;4992667;28;20046;-15
2022/03/25 11:56:11;;;;;;;11.25;8.57;;;19.70;56.80;;;;;;4992994;28;20069;-15
2022/03/25 11:59:00;;;;;;;15.05;8.93;;;19.70;56.50;;;;;;4991407;28;20043;-14
2022/03/25 12:01:26;;;;;;;13.98;8.43;;;19.70;56.30;;;;;;4988432;28;20126;-13
2022/03/25 12:04:01;;;;;;;12.10;8.45;;;19.70;56.50;;;;;;4992221;28;20057;-13
2022/03/25 12:06:30;;;;;;;11.55;8.05;;;19.70;56.90;;;;;;4993654;28;20046;-12
2022/03/25 12:08:58;;;;;;;11.50;8.20;;;19.70;55.80;;;;;;4992611;28;20566;-13
2022/03/25 12:11:49;;;;;;;10.68;7.90;;;19.70;56.50;;;;;;4997418;28;20516;-13
2022/03/25 12:14:15;;;;;;;11.65;7.68;;;19.70;55.70;;;;;;4990211;28;20043;-14
2022/03/25 12:16:47;;;;;;;12.35;8.30;;;19.70;56.60;;;;;;4991873;28;20052;-13
2022/03/25 12:19:39;;;;;;;8.73;7.18;;;19.70;57.20;;;;;;4981838;28;20110;-12
2022/03/25 12:22:28;;;;;;;9.05;7.00;;;19.70;56.80;;;;;;4995084;28;20050;-15
2022/03/25 12:24:55;;;;;;;9.23;7.13;;;19.70;57.20;;;;;;4995751;28;20119;-13
2022/03/25 12:27:21;;;;;;;10.48;6.55;;;19.70;57.10;;;;;;4996179;28;20601;-13
2022/03/25 12:29:48;;;;;;;7.43;6.22;;;19.70;57.20;;;;;;4997356;28;20116;-12
2022/03/25 12:32:15;;;;;;;11.48;7.55;;;19.70;57.20;;;;;;4996084;28;20046;-13
2022/03/25 12:34:41;;;;;;;9.98;7.35;;;19.70;57.20;;;;;;4984903;28;20098;-12
2022/03/25 12:37:09;;;;;;;11.05;6.75;;;19.70;57.20;;;;;;5006559;28;20042;-13
2022/03/25 12:39:35;;;;;;;8.43;6.45;;;19.70;57.20;;;;;;4991580;28;20526;-13
2022/03/25 12:42:09;;;;;;;8.93;6.45;;;19.70;57.20;;;;;;4988005;28;20462;-12
2022/03/25 12:44:34;;;;;;;9.52;6.90;;;19.70;57.30;;;;;;4984732;28;20047;-13
2022/03/25 12:47:01;;;;;;;8.10;6.75;;;19.70;57.30;;;;;;4976168;28;20050;-13
2022/03/25 12:49:27;;;;;;;7.53;6.30;;;19.60;57.30;;;;;;4976490;28;20125;-14